sensor_id;sensor_type;location;lat;lon;timestamp;P1;durP1;ratioP1;P2;durP2;ratioP2
69188;SDS011;56302;52.322;5.926;2023-04-29T00:00:01;44.50;;;19.85;;
69188;SDS011;56302;52.322;5.926;2023-04-29T00:02:28;43.03;;;18.53;;
69188;SDS011;56302;52.322;5.926;2023-04-29T00:04:54;40.75;;;19.35;;
69188;SDS011;56302;52.322;5.926;2023-04-29T00:07:20;43.13;;;19.23;;
69188;SDS011;56302;52.322;5.926;2023-04-29T00:09:46;38.17;;;18.23;;
69188;SDS011;56302;52.322;5.926;2023-04-29T00:12:11;40.78;;;18.90;;
69188;SDS011;56302;52.322;5.926;2023-04-29T00:14:37;38.43;;;18.73;;
69188;SDS011;56302;52.322;5.926;2023-04-29T00:17:02;42.57;;;19.33;;
69188;SDS011;56302;52.322;5.926;2023-04-29T00:19:28;40.00;;;18.25;;
69188;SDS011;56302;52.322;5.926;2023-04-29T00:21:53;38.70;;;19.27;;
69188;SDS011;56302;52.322;5.926;2023-04-29T00:24:19;42.65;;;18.15;;
69188;SDS011;56302;52.322;5.926;2023-04-29T00:26:45;41.03;;;18.63;;
69188;SDS011;56302;52.322;5.926;2023-04-29T00:29:10;39.50;;;18.07;;
69188;SDS011;56302;52.322;5.926;2023-04-29T00:31:36;38.03;;;17.48;;
69188;SDS011;56302;52.322;5.926;2023-04-29T00:34:02;40.77;;;18.83;;
69188;SDS011;56302;52.322;5.926;2023-04-29T00:36:27;39.88;;;19.08;;
69188;SDS011;56302;52.322;5.926;2023-04-29T00:38:53;39.73;;;18.77;;
69188;SDS011;56302;52.322;5.926;2023-04-29T00:41:19;38.15;;;18.38;;
69188;SDS011;56302;52.322;5.926;2023-04-29T00:43:45;35.50;;;17.40;;
69188;SDS011;56302;52.322;5.926;2023-04-29T00:46:10;35.70;;;17.05;;
69188;SDS011;56302;52.322;5.926;2023-04-29T00:48:36;35.97;;;16.90;;
69188;SDS011;56302;52.322;5.926;2023-04-29T00:51:02;35.30;;;16.95;;
69188;SDS011;56302;52.322;5.926;2023-04-29T00:53:30;31.95;;;15.98;;
69188;SDS011;56302;52.322;5.926;2023-04-29T00:55:56;31.05;;;16.42;;
69188;SDS011;56302;52.322;5.926;2023-04-29T00:58:23;32.83;;;15.15;;
69188;SDS011;56302;52.322;5.926;2023-04-29T01:00:54;32.65;;;15.90;;
69188;SDS011;56302;52.322;5.926;2023-04-29T01:03:20;31.45;;;14.93;;
69188;SDS011;56302;52.322;5.926;2023-04-29T01:05:47;33.25;;;15.65;;
69188;SDS011;56302;52.322;5.926;2023-04-29T01:08:26;34.40;;;15.00;;
69188;SDS011;56302;52.322;5.926;2023-04-29T01:11:08;27.67;;;14.15;;
69188;SDS011;56302;52.322;5.926;2023-04-29T01:13:39;28.17;;;14.15;;
69188;SDS011;56302;52.322;5.926;2023-04-29T01:16:08;27.08;;;13.75;;
69188;SDS011;56302;52.322;5.926;2023-04-29T01:18:49;28.75;;;14.48;;
69188;SDS011;56302;52.322;5.926;2023-04-29T01:21:19;26.37;;;13.60;;
69188;SDS011;56302;52.322;5.926;2023-04-29T01:23:44;25.75;;;12.68;;
69188;SDS011;56302;52.322;5.926;2023-04-29T01:26:10;26.50;;;13.97;;
69188;SDS011;56302;52.322;5.926;2023-04-29T01:34:05;23.97;;;12.47;;
69188;SDS011;56302;52.322;5.926;2023-04-29T01:37:25;24.25;;;12.77;;
69188;SDS011;56302;52.322;5.926;2023-04-29T01:39:59;26.90;;;13.25;;
69188;SDS011;56302;52.322;5.926;2023-04-29T01:42:41;25.95;;;12.95;;
69188;SDS011;56302;52.322;5.926;2023-04-29T01:45:10;22.15;;;12.15;;
69188;SDS011;56302;52.322;5.926;2023-04-29T01:47:42;22.07;;;12.17;;
69188;SDS011;56302;52.322;5.926;2023-04-29T01:50:10;22.55;;;12.43;;
69188;SDS011;56302;52.322;5.926;2023-04-29T01:52:35;24.17;;;12.73;;
69188;SDS011;56302;52.322;5.926;2023-04-29T01:55:01;24.53;;;12.03;;
69188;SDS011;56302;52.322;5.926;2023-04-29T01:57:27;23.10;;;12.45;;
69188;SDS011;56302;52.322;5.926;2023-04-29T01:59:53;23.17;;;13.17;;
69188;SDS011;56302;52.322;5.926;2023-04-29T02:02:19;23.50;;;12.60;;
69188;SDS011;56302;52.322;5.926;2023-04-29T02:04:47;27.55;;;13.93;;
69188;SDS011;56302;52.322;5.926;2023-04-29T02:07:13;23.33;;;13.35;;
69188;SDS011;56302;52.322;5.926;2023-04-29T02:09:39;26.67;;;12.30;;
69188;SDS011;56302;52.322;5.926;2023-04-29T02:12:04;26.50;;;13.10;;
69188;SDS011;56302;52.322;5.926;2023-04-29T02:14:30;27.75;;;14.60;;
69188;SDS011;56302;52.322;5.926;2023-04-29T02:16:55;24.47;;;13.00;;
69188;SDS011;56302;52.322;5.926;2023-04-29T02:19:21;25.03;;;14.00;;
69188;SDS011;56302;52.322;5.926;2023-04-29T02:21:46;26.08;;;13.95;;
69188;SDS011;56302;52.322;5.926;2023-04-29T02:24:12;24.45;;;13.50;;
69188;SDS011;56302;52.322;5.926;2023-04-29T02:26:37;30.90;;;14.30;;
69188;SDS011;56302;52.322;5.926;2023-04-29T02:29:03;27.27;;;15.10;;
69188;SDS011;56302;52.322;5.926;2023-04-29T02:31:29;28.67;;;13.60;;
69188;SDS011;56302;52.322;5.926;2023-04-29T02:33:54;27.90;;;15.27;;
69188;SDS011;56302;52.322;5.926;2023-04-29T02:36:20;28.45;;;14.35;;
69188;SDS011;56302;52.322;5.926;2023-04-29T02:38:45;27.57;;;13.37;;
69188;SDS011;56302;52.322;5.926;2023-04-29T02:41:15;26.67;;;13.97;;
69188;SDS011;56302;52.322;5.926;2023-04-29T02:43:42;25.10;;;13.88;;
69188;SDS011;56302;52.322;5.926;2023-04-29T02:46:08;21.95;;;12.75;;
69188;SDS011;56302;52.322;5.926;2023-04-29T02:48:34;27.40;;;14.53;;
69188;SDS011;56302;52.322;5.926;2023-04-29T02:51:00;24.52;;;13.52;;
69188;SDS011;56302;52.322;5.926;2023-04-29T02:53:26;23.42;;;12.95;;
69188;SDS011;56302;52.322;5.926;2023-04-29T02:55:51;27.67;;;15.03;;
69188;SDS011;56302;52.322;5.926;2023-04-29T02:58:17;27.37;;;14.63;;
69188;SDS011;56302;52.322;5.926;2023-04-29T03:00:42;23.70;;;13.60;;
69188;SDS011;56302;52.322;5.926;2023-04-29T03:03:08;24.87;;;13.50;;
69188;SDS011;56302;52.322;5.926;2023-04-29T03:05:34;30.30;;;14.02;;
69188;SDS011;56302;52.322;5.926;2023-04-29T03:08:00;30.00;;;14.20;;
69188;SDS011;56302;52.322;5.926;2023-04-29T03:10:26;28.48;;;14.27;;
69188;SDS011;56302;52.322;5.926;2023-04-29T03:12:52;28.67;;;14.00;;
69188;SDS011;56302;52.322;5.926;2023-04-29T03:15:17;26.67;;;14.50;;
69188;SDS011;56302;52.322;5.926;2023-04-29T03:17:44;25.67;;;13.82;;
69188;SDS011;56302;52.322;5.926;2023-04-29T03:20:10;25.73;;;13.70;;
69188;SDS011;56302;52.322;5.926;2023-04-29T03:22:36;27.70;;;13.15;;
69188;SDS011;56302;52.322;5.926;2023-04-29T03:25:02;23.25;;;12.95;;
69188;SDS011;56302;52.322;5.926;2023-04-29T03:27:27;27.70;;;14.20;;
69188;SDS011;56302;52.322;5.926;2023-04-29T03:29:53;25.08;;;13.98;;
69188;SDS011;56302;52.322;5.926;2023-04-29T03:32:18;27.77;;;14.07;;
69188;SDS011;56302;52.322;5.926;2023-04-29T03:34:44;27.37;;;14.23;;
69188;SDS011;56302;52.322;5.926;2023-04-29T03:37:09;27.40;;;13.63;;
69188;SDS011;56302;52.322;5.926;2023-04-29T03:39:35;23.90;;;13.20;;
69188;SDS011;56302;52.322;5.926;2023-04-29T03:42:01;24.40;;;14.00;;
69188;SDS011;56302;52.322;5.926;2023-04-29T03:44:26;22.17;;;12.88;;
69188;SDS011;56302;52.322;5.926;2023-04-29T03:46:53;27.52;;;13.90;;
69188;SDS011;56302;52.322;5.926;2023-04-29T03:49:18;24.40;;;13.60;;
69188;SDS011;56302;52.322;5.926;2023-04-29T03:51:44;24.10;;;14.10;;
69188;SDS011;56302;52.322;5.926;2023-04-29T03:54:10;23.37;;;13.53;;
69188;SDS011;56302;52.322;5.926;2023-04-29T03:56:37;25.05;;;13.38;;
69188;SDS011;56302;52.322;5.926;2023-04-29T03:59:02;24.53;;;13.67;;
69188;SDS011;56302;52.322;5.926;2023-04-29T04:01:28;24.15;;;13.07;;
69188;SDS011;56302;52.322;5.926;2023-04-29T04:03:53;25.93;;;12.77;;
69188;SDS011;56302;52.322;5.926;2023-04-29T04:06:19;23.60;;;13.00;;
69188;SDS011;56302;52.322;5.926;2023-04-29T04:08:44;25.27;;;13.20;;
69188;SDS011;56302;52.322;5.926;2023-04-29T04:11:10;25.47;;;12.53;;
69188;SDS011;56302;52.322;5.926;2023-04-29T04:13:39;23.08;;;13.55;;
69188;SDS011;56302;52.322;5.926;2023-04-29T04:16:08;25.77;;;13.55;;
69188;SDS011;56302;52.322;5.926;2023-04-29T04:18:35;22.07;;;12.47;;
69188;SDS011;56302;52.322;5.926;2023-04-29T04:21:04;24.33;;;13.43;;
69188;SDS011;56302;52.322;5.926;2023-04-29T04:23:33;26.67;;;13.00;;
69188;SDS011;56302;52.322;5.926;2023-04-29T04:25:59;25.02;;;13.50;;
69188;SDS011;56302;52.322;5.926;2023-04-29T04:28:24;26.03;;;14.10;;
69188;SDS011;56302;52.322;5.926;2023-04-29T04:30:50;24.40;;;13.13;;
69188;SDS011;56302;52.322;5.926;2023-04-29T04:33:16;27.08;;;13.98;;
69188;SDS011;56302;52.322;5.926;2023-04-29T04:35:42;23.15;;;13.43;;
69188;SDS011;56302;52.322;5.926;2023-04-29T04:38:07;29.20;;;13.90;;
69188;SDS011;56302;52.322;5.926;2023-04-29T04:40:35;28.02;;;14.15;;
69188;SDS011;56302;52.322;5.926;2023-04-29T04:43:01;25.27;;;13.13;;
69188;SDS011;56302;52.322;5.926;2023-04-29T04:45:29;26.07;;;12.97;;
69188;SDS011;56302;52.322;5.926;2023-04-29T04:47:55;25.38;;;13.82;;
69188;SDS011;56302;52.322;5.926;2023-04-29T04:50:21;23.57;;;13.17;;
69188;SDS011;56302;52.322;5.926;2023-04-29T04:52:46;25.55;;;13.15;;
69188;SDS011;56302;52.322;5.926;2023-04-29T04:55:12;25.13;;;13.17;;
69188;SDS011;56302;52.322;5.926;2023-04-29T04:57:37;25.90;;;12.90;;
69188;SDS011;56302;52.322;5.926;2023-04-29T05:00:03;26.17;;;13.37;;
69188;SDS011;56302;52.322;5.926;2023-04-29T05:02:29;24.27;;;13.23;;
69188;SDS011;56302;52.322;5.926;2023-04-29T05:04:54;24.65;;;13.15;;
69188;SDS011;56302;52.322;5.926;2023-04-29T05:07:20;25.03;;;13.70;;
69188;SDS011;56302;52.322;5.926;2023-04-29T05:09:46;25.17;;;13.30;;
69188;SDS011;56302;52.322;5.926;2023-04-29T05:12:11;31.17;;;13.63;;
69188;SDS011;56302;52.322;5.926;2023-04-29T05:14:37;26.70;;;13.73;;
69188;SDS011;56302;52.322;5.926;2023-04-29T05:17:02;21.98;;;12.10;;
69188;SDS011;56302;52.322;5.926;2023-04-29T05:19:28;23.30;;;12.93;;
69188;SDS011;56302;52.322;5.926;2023-04-29T05:21:53;24.27;;;13.03;;
69188;SDS011;56302;52.322;5.926;2023-04-29T05:24:19;24.70;;;12.77;;
69188;SDS011;56302;52.322;5.926;2023-04-29T05:26:45;25.77;;;13.47;;
69188;SDS011;56302;52.322;5.926;2023-04-29T05:29:11;31.27;;;14.18;;
69188;SDS011;56302;52.322;5.926;2023-04-29T05:31:36;26.43;;;13.10;;
69188;SDS011;56302;52.322;5.926;2023-04-29T05:34:03;31.70;;;14.43;;
69188;SDS011;56302;52.322;5.926;2023-04-29T05:36:29;24.02;;;12.68;;
69188;SDS011;56302;52.322;5.926;2023-04-29T05:38:55;28.55;;;13.13;;
69188;SDS011;56302;52.322;5.926;2023-04-29T05:41:21;26.67;;;12.63;;
69188;SDS011;56302;52.322;5.926;2023-04-29T05:43:48;25.73;;;12.88;;
69188;SDS011;56302;52.322;5.926;2023-04-29T05:46:15;25.83;;;12.90;;
69188;SDS011;56302;52.322;5.926;2023-04-29T05:48:40;25.17;;;11.73;;
69188;SDS011;56302;52.322;5.926;2023-04-29T05:51:06;23.77;;;12.63;;
69188;SDS011;56302;52.322;5.926;2023-04-29T05:53:31;24.30;;;11.90;;
69188;SDS011;56302;52.322;5.926;2023-04-29T05:55:57;21.83;;;12.97;;
69188;SDS011;56302;52.322;5.926;2023-04-29T05:58:23;25.08;;;12.20;;
69188;SDS011;56302;52.322;5.926;2023-04-29T06:00:49;26.52;;;12.07;;
69188;SDS011;56302;52.322;5.926;2023-04-29T06:03:15;29.38;;;13.25;;
69188;SDS011;56302;52.322;5.926;2023-04-29T06:05:41;27.33;;;11.90;;
69188;SDS011;56302;52.322;5.926;2023-04-29T06:08:06;25.10;;;12.02;;
69188;SDS011;56302;52.322;5.926;2023-04-29T06:10:32;26.17;;;12.43;;
69188;SDS011;56302;52.322;5.926;2023-04-29T06:12:58;25.13;;;11.77;;
69188;SDS011;56302;52.322;5.926;2023-04-29T06:15:23;25.23;;;12.20;;
69188;SDS011;56302;52.322;5.926;2023-04-29T06:17:49;25.92;;;11.93;;
69188;SDS011;56302;52.322;5.926;2023-04-29T06:20:15;27.70;;;11.57;;
69188;SDS011;56302;52.322;5.926;2023-04-29T06:22:40;22.03;;;11.30;;
69188;SDS011;56302;52.322;5.926;2023-04-29T06:25:06;25.50;;;12.05;;
69188;SDS011;56302;52.322;5.926;2023-04-29T06:27:31;23.57;;;11.23;;
69188;SDS011;56302;52.322;5.926;2023-04-29T06:29:57;29.25;;;12.32;;
69188;SDS011;56302;52.322;5.926;2023-04-29T06:32:23;20.67;;;10.95;;
69188;SDS011;56302;52.322;5.926;2023-04-29T06:34:48;23.57;;;11.67;;
69188;SDS011;56302;52.322;5.926;2023-04-29T06:37:14;21.75;;;11.90;;
69188;SDS011;56302;52.322;5.926;2023-04-29T06:39:39;25.97;;;11.50;;
69188;SDS011;56302;52.322;5.926;2023-04-29T06:42:05;23.40;;;11.43;;
69188;SDS011;56302;52.322;5.926;2023-04-29T06:44:31;22.73;;;10.93;;
69188;SDS011;56302;52.322;5.926;2023-04-29T06:46:56;22.47;;;10.70;;
69188;SDS011;56302;52.322;5.926;2023-04-29T06:49:22;25.25;;;10.80;;
69188;SDS011;56302;52.322;5.926;2023-04-29T06:51:48;23.00;;;11.30;;
69188;SDS011;56302;52.322;5.926;2023-04-29T06:54:13;24.83;;;10.63;;
69188;SDS011;56302;52.322;5.926;2023-04-29T06:56:38;18.77;;;10.82;;
69188;SDS011;56302;52.322;5.926;2023-04-29T06:59:04;23.30;;;11.53;;
69188;SDS011;56302;52.322;5.926;2023-04-29T07:01:30;23.07;;;11.90;;
69188;SDS011;56302;52.322;5.926;2023-04-29T07:03:55;20.48;;;11.00;;
69188;SDS011;56302;52.322;5.926;2023-04-29T07:06:21;22.23;;;11.07;;
69188;SDS011;56302;52.322;5.926;2023-04-29T07:08:46;22.93;;;11.80;;
69188;SDS011;56302;52.322;5.926;2023-04-29T07:11:12;24.02;;;10.32;;
69188;SDS011;56302;52.322;5.926;2023-04-29T07:13:38;20.67;;;11.03;;
69188;SDS011;56302;52.322;5.926;2023-04-29T07:16:03;19.20;;;10.63;;
69188;SDS011;56302;52.322;5.926;2023-04-29T07:18:29;18.48;;;9.70;;
69188;SDS011;56302;52.322;5.926;2023-04-29T07:20:59;19.38;;;11.52;;
69188;SDS011;56302;52.322;5.926;2023-04-29T07:23:25;20.33;;;9.33;;
69188;SDS011;56302;52.322;5.926;2023-04-29T07:25:51;21.70;;;9.88;;
69188;SDS011;56302;52.322;5.926;2023-04-29T07:28:16;21.63;;;9.83;;
69188;SDS011;56302;52.322;5.926;2023-04-29T07:30:42;18.88;;;9.48;;
69188;SDS011;56302;52.322;5.926;2023-04-29T07:33:08;18.23;;;8.80;;
69188;SDS011;56302;52.322;5.926;2023-04-29T07:35:34;16.75;;;9.80;;
69188;SDS011;56302;52.322;5.926;2023-04-29T07:37:59;21.70;;;10.03;;
69188;SDS011;56302;52.322;5.926;2023-04-29T07:40:25;19.07;;;10.13;;
69188;SDS011;56302;52.322;5.926;2023-04-29T07:42:50;19.73;;;8.60;;
69188;SDS011;56302;52.322;5.926;2023-04-29T07:45:16;17.93;;;8.50;;
69188;SDS011;56302;52.322;5.926;2023-04-29T07:47:41;15.43;;;8.50;;
69188;SDS011;56302;52.322;5.926;2023-04-29T07:50:07;17.45;;;8.18;;
69188;SDS011;56302;52.322;5.926;2023-04-29T07:52:33;16.60;;;9.17;;
69188;SDS011;56302;52.322;5.926;2023-04-29T07:54:58;16.10;;;8.00;;
69188;SDS011;56302;52.322;5.926;2023-04-29T07:57:24;15.52;;;8.48;;
69188;SDS011;56302;52.322;5.926;2023-04-29T07:59:50;15.97;;;7.57;;
69188;SDS011;56302;52.322;5.926;2023-04-29T08:02:19;14.18;;;7.95;;
69188;SDS011;56302;52.322;5.926;2023-04-29T08:04:44;15.37;;;8.07;;
69188;SDS011;56302;52.322;5.926;2023-04-29T08:07:10;17.35;;;8.05;;
69188;SDS011;56302;52.322;5.926;2023-04-29T08:09:36;14.23;;;7.65;;
69188;SDS011;56302;52.322;5.926;2023-04-29T08:12:02;12.80;;;6.97;;
69188;SDS011;56302;52.322;5.926;2023-04-29T08:14:28;13.85;;;8.23;;
69188;SDS011;56302;52.322;5.926;2023-04-29T08:16:53;18.50;;;8.60;;
69188;SDS011;56302;52.322;5.926;2023-04-29T08:19:19;14.15;;;6.70;;
69188;SDS011;56302;52.322;5.926;2023-04-29T08:21:45;13.70;;;7.37;;
69188;SDS011;56302;52.322;5.926;2023-04-29T08:24:11;13.43;;;7.15;;
69188;SDS011;56302;52.322;5.926;2023-04-29T08:26:38;14.35;;;7.05;;
69188;SDS011;56302;52.322;5.926;2023-04-29T08:29:04;12.15;;;6.82;;
69188;SDS011;56302;52.322;5.926;2023-04-29T08:31:30;12.23;;;6.33;;
69188;SDS011;56302;52.322;5.926;2023-04-29T08:33:56;12.45;;;6.15;;
69188;SDS011;56302;52.322;5.926;2023-04-29T08:36:22;11.98;;;6.93;;
69188;SDS011;56302;52.322;5.926;2023-04-29T08:38:48;15.18;;;6.18;;
69188;SDS011;56302;52.322;5.926;2023-04-29T08:41:16;12.40;;;6.68;;
69188;SDS011;56302;52.322;5.926;2023-04-29T08:43:42;12.37;;;6.27;;
69188;SDS011;56302;52.322;5.926;2023-04-29T08:46:08;14.73;;;6.13;;
69188;SDS011;56302;52.322;5.926;2023-04-29T08:48:34;12.33;;;7.00;;
69188;SDS011;56302;52.322;5.926;2023-04-29T08:51:01;11.32;;;6.15;;
69188;SDS011;56302;52.322;5.926;2023-04-29T08:53:27;12.85;;;5.97;;
69188;SDS011;56302;52.322;5.926;2023-04-29T08:55:53;11.10;;;5.03;;
69188;SDS011;56302;52.322;5.926;2023-04-29T08:58:21;8.38;;;5.00;;
69188;SDS011;56302;52.322;5.926;2023-04-29T09:00:50;11.18;;;6.03;;
69188;SDS011;56302;52.322;5.926;2023-04-29T09:03:17;12.50;;;5.13;;
69188;SDS011;56302;52.322;5.926;2023-04-29T09:05:54;13.52;;;5.47;;
69188;SDS011;56302;52.322;5.926;2023-04-29T09:08:23;11.15;;;5.78;;
69188;SDS011;56302;52.322;5.926;2023-04-29T09:10:49;11.95;;;6.00;;
69188;SDS011;56302;52.322;5.926;2023-04-29T09:13:26;11.67;;;6.40;;
69188;SDS011;56302;52.322;5.926;2023-04-29T09:15:53;11.85;;;6.30;;
69188;SDS011;56302;52.322;5.926;2023-04-29T09:21:14;12.77;;;5.65;;
69188;SDS011;56302;52.322;5.926;2023-04-29T09:23:40;12.38;;;5.07;;
69188;SDS011;56302;52.322;5.926;2023-04-29T09:26:06;10.83;;;4.87;;
69188;SDS011;56302;52.322;5.926;2023-04-29T09:28:32;10.20;;;5.22;;
69188;SDS011;56302;52.322;5.926;2023-04-29T09:31:03;11.83;;;5.37;;
69188;SDS011;56302;52.322;5.926;2023-04-29T09:33:30;11.55;;;5.57;;
69188;SDS011;56302;52.322;5.926;2023-04-29T09:35:56;10.80;;;5.30;;
69188;SDS011;56302;52.322;5.926;2023-04-29T09:38:22;11.93;;;5.05;;
69188;SDS011;56302;52.322;5.926;2023-04-29T09:40:47;11.97;;;5.17;;
69188;SDS011;56302;52.322;5.926;2023-04-29T09:43:14;11.63;;;5.70;;
69188;SDS011;56302;52.322;5.926;2023-04-29T09:45:42;9.82;;;5.13;;
69188;SDS011;56302;52.322;5.926;2023-04-29T09:48:09;10.38;;;6.13;;
69188;SDS011;56302;52.322;5.926;2023-04-29T09:50:40;11.95;;;5.85;;
69188;SDS011;56302;52.322;5.926;2023-04-29T09:53:08;11.00;;;6.20;;
69188;SDS011;56302;52.322;5.926;2023-04-29T09:55:35;15.30;;;5.95;;
69188;SDS011;56302;52.322;5.926;2023-04-29T09:58:32;9.80;;;5.90;;
69188;SDS011;56302;52.322;5.926;2023-04-29T10:01:03;9.27;;;5.20;;
69188;SDS011;56302;52.322;5.926;2023-04-29T10:03:32;9.40;;;5.78;;
69188;SDS011;56302;52.322;5.926;2023-04-29T10:06:00;12.85;;;6.65;;
69188;SDS011;56302;52.322;5.926;2023-04-29T10:08:28;11.18;;;5.85;;
69188;SDS011;56302;52.322;5.926;2023-04-29T10:11:03;8.20;;;4.95;;
69188;SDS011;56302;52.322;5.926;2023-04-29T10:13:30;11.75;;;5.60;;
69188;SDS011;56302;52.322;5.926;2023-04-29T10:16:12;10.60;;;5.43;;
69188;SDS011;56302;52.322;5.926;2023-04-29T10:18:48;10.60;;;5.78;;
69188;SDS011;56302;52.322;5.926;2023-04-29T10:21:17;10.63;;;5.55;;
69188;SDS011;56302;52.322;5.926;2023-04-29T10:23:52;11.52;;;5.55;;
69188;SDS011;56302;52.322;5.926;2023-04-29T10:26:20;13.35;;;6.10;;
69188;SDS011;56302;52.322;5.926;2023-04-29T10:28:47;10.35;;;5.15;;
69188;SDS011;56302;52.322;5.926;2023-04-29T10:31:15;10.73;;;5.10;;
69188;SDS011;56302;52.322;5.926;2023-04-29T10:33:42;10.70;;;5.43;;
69188;SDS011;56302;52.322;5.926;2023-04-29T10:36:10;12.32;;;5.40;;
69188;SDS011;56302;52.322;5.926;2023-04-29T10:38:41;11.43;;;5.72;;
69188;SDS011;56302;52.322;5.926;2023-04-29T10:41:16;10.98;;;5.25;;
69188;SDS011;56302;52.322;5.926;2023-04-29T10:43:45;9.18;;;4.72;;
69188;SDS011;56302;52.322;5.926;2023-04-29T10:48:48;8.45;;;4.85;;
69188;SDS011;56302;52.322;5.926;2023-04-29T10:51:30;9.13;;;4.63;;
69188;SDS011;56302;52.322;5.926;2023-04-29T10:54:00;9.15;;;4.47;;
69188;SDS011;56302;52.322;5.926;2023-04-29T11:01:57;8.90;;;5.00;;
69188;SDS011;56302;52.322;5.926;2023-04-29T11:04:23;10.25;;;4.38;;
69188;SDS011;56302;52.322;5.926;2023-04-29T11:06:53;10.27;;;4.90;;
69188;SDS011;56302;52.322;5.926;2023-04-29T11:14:35;9.40;;;4.47;;
69188;SDS011;56302;52.322;5.926;2023-04-29T11:17:03;8.57;;;4.35;;
69188;SDS011;56302;52.322;5.926;2023-04-29T11:19:36;9.40;;;4.30;;
69188;SDS011;56302;52.322;5.926;2023-04-29T11:24:34;8.90;;;4.43;;
69188;SDS011;56302;52.322;5.926;2023-04-29T11:27:03;8.38;;;4.53;;
69188;SDS011;56302;52.322;5.926;2023-04-29T11:29:32;7.70;;;3.95;;
69188;SDS011;56302;52.322;5.926;2023-04-29T11:32:00;8.07;;;4.13;;
69188;SDS011;56302;52.322;5.926;2023-04-29T11:34:26;7.00;;;3.83;;
69188;SDS011;56302;52.322;5.926;2023-04-29T11:36:52;6.73;;;3.97;;
69188;SDS011;56302;52.322;5.926;2023-04-29T11:39:17;7.55;;;4.13;;
69188;SDS011;56302;52.322;5.926;2023-04-29T11:41:43;7.30;;;3.80;;
69188;SDS011;56302;52.322;5.926;2023-04-29T11:44:08;8.23;;;3.77;;
69188;SDS011;56302;52.322;5.926;2023-04-29T11:46:36;9.98;;;4.43;;
69188;SDS011;56302;52.322;5.926;2023-04-29T11:49:02;9.82;;;4.70;;
69188;SDS011;56302;52.322;5.926;2023-04-29T11:51:27;6.73;;;3.90;;
69188;SDS011;56302;52.322;5.926;2023-04-29T11:53:53;6.60;;;3.13;;
69188;SDS011;56302;52.322;5.926;2023-04-29T11:56:21;6.47;;;2.78;;
69188;SDS011;56302;52.322;5.926;2023-04-29T11:58:53;5.43;;;3.00;;
69188;SDS011;56302;52.322;5.926;2023-04-29T12:01:25;5.75;;;2.75;;
69188;SDS011;56302;52.322;5.926;2023-04-29T12:03:55;6.07;;;3.42;;
69188;SDS011;56302;52.322;5.926;2023-04-29T12:06:26;6.07;;;3.25;;
69188;SDS011;56302;52.322;5.926;2023-04-29T12:08:53;6.53;;;3.78;;
69188;SDS011;56302;52.322;5.926;2023-04-29T12:11:18;10.38;;;4.18;;
69188;SDS011;56302;52.322;5.926;2023-04-29T12:13:44;7.80;;;4.22;;
69188;SDS011;56302;52.322;5.926;2023-04-29T12:16:10;8.83;;;4.10;;
69188;SDS011;56302;52.322;5.926;2023-04-29T12:18:36;8.13;;;3.75;;
69188;SDS011;56302;52.322;5.926;2023-04-29T12:21:02;7.97;;;3.45;;
69188;SDS011;56302;52.322;5.926;2023-04-29T12:23:28;8.23;;;3.83;;
69188;SDS011;56302;52.322;5.926;2023-04-29T12:25:55;6.57;;;4.07;;
69188;SDS011;56302;52.322;5.926;2023-04-29T12:28:21;9.37;;;3.80;;
69188;SDS011;56302;52.322;5.926;2023-04-29T12:30:49;12.10;;;3.30;;
69188;SDS011;56302;52.322;5.926;2023-04-29T12:33:19;7.78;;;3.88;;
69188;SDS011;56302;52.322;5.926;2023-04-29T12:35:46;6.43;;;3.53;;
69188;SDS011;56302;52.322;5.926;2023-04-29T12:38:19;8.18;;;3.90;;
69188;SDS011;56302;52.322;5.926;2023-04-29T12:40:51;5.43;;;2.87;;
69188;SDS011;56302;52.322;5.926;2023-04-29T12:43:17;5.75;;;3.58;;
69188;SDS011;56302;52.322;5.926;2023-04-29T12:45:44;6.32;;;3.05;;
69188;SDS011;56302;52.322;5.926;2023-04-29T12:48:10;6.38;;;3.30;;
69188;SDS011;56302;52.322;5.926;2023-04-29T12:50:37;7.67;;;3.10;;
69188;SDS011;56302;52.322;5.926;2023-04-29T12:53:03;5.88;;;3.10;;
69188;SDS011;56302;52.322;5.926;2023-04-29T12:55:34;8.15;;;3.80;;
69188;SDS011;56302;52.322;5.926;2023-04-29T12:58:01;7.22;;;3.90;;
69188;SDS011;56302;52.322;5.926;2023-04-29T13:00:27;8.38;;;3.90;;
69188;SDS011;56302;52.322;5.926;2023-04-29T13:02:53;8.33;;;3.93;;
69188;SDS011;56302;52.322;5.926;2023-04-29T13:05:19;11.53;;;3.80;;
69188;SDS011;56302;52.322;5.926;2023-04-29T13:07:46;7.55;;;3.58;;
69188;SDS011;56302;52.322;5.926;2023-04-29T13:10:11;8.57;;;3.72;;
69188;SDS011;56302;52.322;5.926;2023-04-29T13:12:37;7.47;;;3.63;;
69188;SDS011;56302;52.322;5.926;2023-04-29T13:15:04;6.18;;;3.00;;
69188;SDS011;56302;52.322;5.926;2023-04-29T13:17:31;6.30;;;2.88;;
69188;SDS011;56302;52.322;5.926;2023-04-29T13:19:57;5.97;;;2.60;;
69188;SDS011;56302;52.322;5.926;2023-04-29T13:22:22;8.43;;;3.13;;
69188;SDS011;56302;52.322;5.926;2023-04-29T13:24:48;10.40;;;3.50;;
69188;SDS011;56302;52.322;5.926;2023-04-29T13:27:14;8.73;;;3.77;;
69188;SDS011;56302;52.322;5.926;2023-04-29T13:29:39;12.00;;;4.50;;
69188;SDS011;56302;52.322;5.926;2023-04-29T13:32:05;7.93;;;3.63;;
69188;SDS011;56302;52.322;5.926;2023-04-29T13:34:32;8.23;;;3.55;;
69188;SDS011;56302;52.322;5.926;2023-04-29T13:36:57;6.97;;;4.23;;
69188;SDS011;56302;52.322;5.926;2023-04-29T13:39:23;8.47;;;4.33;;
69188;SDS011;56302;52.322;5.926;2023-04-29T13:41:48;7.72;;;3.50;;
69188;SDS011;56302;52.322;5.926;2023-04-29T13:44:14;8.32;;;3.50;;
69188;SDS011;56302;52.322;5.926;2023-04-29T13:46:40;6.47;;;3.10;;
69188;SDS011;56302;52.322;5.926;2023-04-29T13:49:05;10.80;;;3.70;;
69188;SDS011;56302;52.322;5.926;2023-04-29T13:51:31;9.18;;;4.30;;
69188;SDS011;56302;52.322;5.926;2023-04-29T13:53:56;10.70;;;4.33;;
69188;SDS011;56302;52.322;5.926;2023-04-29T13:56:22;8.13;;;4.03;;
69188;SDS011;56302;52.322;5.926;2023-04-29T13:58:49;10.57;;;4.35;;
69188;SDS011;56302;52.322;5.926;2023-04-29T14:01:15;7.85;;;3.75;;
69188;SDS011;56302;52.322;5.926;2023-04-29T14:03:47;8.03;;;3.40;;
69188;SDS011;56302;52.322;5.926;2023-04-29T14:06:12;9.93;;;4.50;;
69188;SDS011;56302;52.322;5.926;2023-04-29T14:08:38;10.07;;;4.23;;
69188;SDS011;56302;52.322;5.926;2023-04-29T14:11:04;9.02;;;4.03;;
69188;SDS011;56302;52.322;5.926;2023-04-29T14:13:30;8.82;;;3.85;;
69188;SDS011;56302;52.322;5.926;2023-04-29T14:15:55;9.70;;;4.73;;
69188;SDS011;56302;52.322;5.926;2023-04-29T14:18:22;7.28;;;3.95;;
69188;SDS011;56302;52.322;5.926;2023-04-29T14:20:48;8.23;;;4.23;;
69188;SDS011;56302;52.322;5.926;2023-04-29T14:23:13;9.90;;;4.33;;
69188;SDS011;56302;52.322;5.926;2023-04-29T14:25:39;10.23;;;4.57;;
69188;SDS011;56302;52.322;5.926;2023-04-29T14:28:04;7.65;;;4.68;;
69188;SDS011;56302;52.322;5.926;2023-04-29T14:30:30;10.53;;;4.40;;
69188;SDS011;56302;52.322;5.926;2023-04-29T14:32:55;9.82;;;4.38;;
69188;SDS011;56302;52.322;5.926;2023-04-29T14:35:21;7.90;;;4.37;;
69188;SDS011;56302;52.322;5.926;2023-04-29T14:37:47;9.55;;;4.68;;
69188;SDS011;56302;52.322;5.926;2023-04-29T14:40:14;8.23;;;4.50;;
69188;SDS011;56302;52.322;5.926;2023-04-29T14:42:39;9.48;;;4.25;;
69188;SDS011;56302;52.322;5.926;2023-04-29T14:45:05;9.23;;;3.90;;
69188;SDS011;56302;52.322;5.926;2023-04-29T14:47:31;9.57;;;4.13;;
69188;SDS011;56302;52.322;5.926;2023-04-29T14:49:57;7.33;;;3.20;;
69188;SDS011;56302;52.322;5.926;2023-04-29T14:52:23;8.13;;;3.50;;